Time;durP1;ratioP1;P1;durP2;ratioP2;P2;SDS_P1;SDS_P2;PMS_P1;PMS_P2;Temp;Humidity;BMP_temperature;BMP_pressure;BME280_temperature;BME280_humidity;BME280_pressure;Samples;Min_cycle;Max_cycle;Signal;HPM_P1;HPM_P2
2022/03/16 05:02:11;;;;;;;114.80;43.15;;;5.40;99.90;;;;;;5166109;22;92108;-74
2022/03/16 05:04:36;;;;;;;125.35;45.88;;;5.30;99.90;;;;;;4959745;28;90980;-74
2022/03/16 05:07:02;;;;;;;109.18;42.42;;;5.30;99.90;;;;;;4977150;28;89620;-74
2022/03/16 05:09:28;;;;;;;126.43;45.15;;;5.40;99.90;;;;;;4977112;28;92260;-73
2022/03/16 05:11:53;;;;;;;124.80;46.47;;;5.40;99.90;;;;;;4958812;28;92718;-74
2022/03/16 05:14:19;;;;;;;105.05;42.85;;;5.40;99.90;;;;;;4977891;28;91156;-74
2022/03/16 05:16:45;;;;;;;119.30;43.55;;;5.40;99.90;;;;;;4977405;28;89319;-73
2022/03/16 05:19:10;;;;;;;124.50;44.80;;;5.40;99.90;;;;;;4976622;28;91379;-73
2022/03/16 05:21:36;;;;;;;114.32;43.97;;;5.50;99.90;;;;;;4976721;28;89949;-73
2022/03/16 05:24:02;;;;;;;110.40;43.42;;;5.50;99.90;;;;;;4960967;28;91519;-73
2022/03/16 05:26:27;;;;;;;92.93;40.40;;;5.40;99.90;;;;;;4981176;28;89250;-73
2022/03/16 05:28:53;;;;;;;105.45;42.85;;;5.50;99.90;;;;;;4981063;28;89653;-73
2022/03/16 05:31:20;;;;;;;102.30;42.33;;;5.50;99.90;;;;;;4980383;28;89446;-73
2022/03/16 05:33:47;;;;;;;95.78;41.35;;;5.50;99.90;;;;;;4980229;28;90116;-73
2022/03/16 05:36:12;;;;;;;98.65;41.45;;;5.50;99.90;;;;;;4980151;28;90164;-73
2022/03/16 05:38:38;;;;;;;93.60;39.70;;;5.50;99.90;;;;;;4962653;28;89843;-74
2022/03/16 05:41:03;;;;;;;98.15;40.50;;;5.50;99.90;;;;;;4980251;28;89806;-74
2022/03/16 05:43:29;;;;;;;85.30;39.05;;;5.60;99.90;;;;;;4962370;28;92917;-74
2022/03/16 05:45:54;;;;;;;85.38;38.30;;;5.60;99.90;;;;;;4980518;28;89558;-74
2022/03/16 05:48:20;;;;;;;93.70;41.47;;;5.60;99.90;;;;;;4979938;28;89708;-74
2022/03/16 05:50:46;;;;;;;87.50;39.50;;;5.60;99.90;;;;;;4980053;28;89937;-73
2022/03/16 05:53:12;;;;;;;83.55;38.30;;;5.60;99.90;;;;;;4980299;28;89472;-74
2022/03/16 05:55:38;;;;;;;86.97;40.00;;;5.60;99.90;;;;;;4979992;28;89316;-74
2022/03/16 05:58:03;;;;;;;92.53;41.00;;;5.60;99.90;;;;;;4980019;28;90226;-74
2022/03/16 06:00:31;;;;;;;74.68;37.47;;;5.70;99.90;;;;;;4960965;28;94089;-74
2022/03/16 06:02:57;;;;;;;78.63;37.95;;;5.70;99.90;;;;;;4979794;28;90150;-74
2022/03/16 06:05:22;;;;;;;77.55;37.72;;;5.70;99.90;;;;;;4980216;28;89223;-74
2022/03/16 06:07:48;;;;;;;76.05;38.17;;;5.70;99.90;;;;;;4979641;28;89250;-74
2022/03/16 06:10:17;;;;;;;80.97;38.40;;;5.80;99.90;;;;;;4961762;28;89483;-74
2022/03/16 06:12:50;;;;;;;71.82;36.25;;;5.80;99.90;;;;;;4979893;28;89623;-74
2022/03/16 06:15:16;;;;;;;69.50;37.10;;;5.80;99.90;;;;;;4979852;28;89223;-74
2022/03/16 06:17:41;;;;;;;73.53;36.47;;;5.80;99.90;;;;;;4980011;28;88966;-74
2022/03/16 06:20:07;;;;;;;65.82;34.88;;;5.90;99.90;;;;;;4979728;28;89826;-74
2022/03/16 06:22:33;;;;;;;64.57;34.60;;;5.90;99.90;;;;;;4978804;28;89994;-74
2022/03/16 06:24:58;;;;;;;63.70;35.28;;;5.90;99.90;;;;;;4979245;28;90240;-74
2022/03/16 06:27:24;;;;;;;66.60;35.22;;;5.90;99.90;;;;;;4961486;28;92475;-74
2022/03/16 06:29:49;;;;;;;64.63;34.08;;;6.00;99.90;;;;;;4979858;28;89204;-74
2022/03/16 06:32:15;;;;;;;60.47;33.88;;;6.10;99.90;;;;;;4978867;28;89331;-74
2022/03/16 06:34:40;;;;;;;60.13;32.15;;;6.10;99.90;;;;;;4977313;28;89223;-74
2022/03/16 06:37:06;;;;;;;54.47;31.88;;;6.10;99.90;;;;;;4959966;28;92934;-75
2022/03/16 06:39:31;;;;;;;57.72;32.28;;;6.10;99.90;;;;;;4979116;28;90224;-75
2022/03/16 06:41:57;;;;;;;57.00;31.88;;;6.10;99.90;;;;;;4979172;28;89755;-74
2022/03/16 06:44:22;;;;;;;55.67;31.38;;;6.20;99.90;;;;;;4979395;28;89183;-75
2022/03/16 06:46:48;;;;;;;51.65;29.80;;;6.30;99.90;;;;;;4960297;28;92495;-76
2022/03/16 06:49:14;;;;;;;52.17;31.10;;;6.30;99.90;;;;;;4960901;28;93928;-76
2022/03/16 06:51:40;;;;;;;51.50;29.92;;;6.40;99.90;;;;;;4979404;28;89383;-76
2022/03/16 06:54:05;;;;;;;50.67;29.80;;;6.50;99.90;;;;;;4979595;28;89306;-75
2022/03/16 06:56:31;;;;;;;49.05;29.67;;;6.50;99.90;;;;;;4978440;28;89787;-76
2022/03/16 06:58:56;;;;;;;50.05;30.48;;;6.60;99.90;;;;;;4978790;28;90507;-75
2022/03/16 07:01:22;;;;;;;49.75;29.65;;;6.60;99.90;;;;;;4978592;28;89475;-77
2022/03/16 07:03:48;;;;;;;47.13;28.50;;;6.60;99.90;;;;;;4979221;28;89399;-75
2022/03/16 07:06:13;;;;;;;46.47;28.60;;;6.70;99.90;;;;;;4979046;28;89820;-75
2022/03/16 07:08:39;;;;;;;45.63;28.17;;;6.80;99.90;;;;;;4979037;28;89981;-75
2022/03/16 07:11:07;;;;;;;43.08;27.48;;;6.80;99.90;;;;;;4978778;28;89631;-75
2022/03/16 07:13:32;;;;;;;43.97;29.05;;;6.80;99.90;;;;;;4978202;28;90200;-75
2022/03/16 07:15:58;;;;;;;43.65;27.33;;;6.90;99.90;;;;;;4978303;28;89982;-75
2022/03/16 07:18:24;;;;;;;41.72;26.55;;;7.00;99.90;;;;;;4978389;28;90016;-75
2022/03/16 07:20:49;;;;;;;43.53;27.35;;;7.10;99.90;;;;;;4978505;28;89241;-75
2022/03/16 07:23:17;;;;;;;41.97;27.75;;;7.30;99.90;;;;;;4961044;28;89298;-75
2022/03/16 07:25:49;;;;;;;40.47;26.42;;;7.40;99.90;;;;;;4978338;28;89146;-75
2022/03/16 07:28:15;;;;;;;41.92;26.83;;;7.50;99.90;;;;;;4978132;28;91110;-75
2022/03/16 07:30:42;;;;;;;39.03;24.98;;;7.60;99.90;;;;;;4961538;28;91471;-76
2022/03/16 07:33:08;;;;;;;41.80;27.33;;;7.70;99.90;;;;;;4978434;28;89299;-76
2022/03/16 07:35:35;;;;;;;37.45;26.10;;;7.80;99.90;;;;;;4978151;28;91050;-76
2022/03/16 07:38:03;;;;;;;35.22;24.38;;;7.80;99.90;;;;;;4959706;28;92574;-76
2022/03/16 07:40:31;;;;;;;35.30;24.35;;;7.70;99.90;;;;;;4977742;28;90687;-77
2022/03/16 07:43:00;;;;;;;37.95;25.27;;;7.70;99.90;;;;;;4960258;28;90872;-77
2022/03/16 07:45:26;;;;;;;37.97;24.90;;;7.80;99.90;;;;;;4958268;28;91436;-77
2022/03/16 07:47:56;;;;;;;36.70;25.70;;;7.90;99.90;;;;;;4959905;28;92683;-77
2022/03/16 07:50:22;;;;;;;34.20;24.00;;;8.10;99.90;;;;;;4960895;28;92810;-78
2022/03/16 07:52:48;;;;;;;34.60;24.10;;;8.10;99.90;;;;;;4961587;28;89431;-78
2022/03/16 07:55:14;;;;;;;36.15;24.98;;;8.20;99.90;;;;;;4980171;28;88702;-76
2022/03/16 07:57:40;;;;;;;34.20;23.58;;;8.30;99.90;;;;;;4984858;28;90547;-75
2022/03/16 08:00:10;;;;;;;29.90;21.48;;;8.40;99.90;;;;;;4994976;28;88857;-77
2022/03/16 08:02:36;;;;;;;33.17;22.77;;;8.40;99.90;;;;;;4977375;28;90167;-75
2022/03/16 08:05:02;;;;;;;31.20;22.50;;;8.40;99.90;;;;;;4980389;28;89237;-77
2022/03/16 08:07:29;;;;;;;33.30;23.38;;;8.50;99.90;;;;;;4979404;28;89527;-76
2022/03/16 08:09:56;;;;;;;29.15;20.95;;;8.50;99.90;;;;;;4979740;28;89416;-77
2022/03/16 08:12:22;;;;;;;41.22;23.90;;;8.50;99.90;;;;;;4981781;28;89177;-76
2022/03/16 08:14:48;;;;;;;35.88;24.80;;;8.50;99.90;;;;;;4982191;28;90178;-77
2022/03/16 08:17:14;;;;;;;30.63;21.60;;;8.60;99.90;;;;;;4963766;28;91578;-77
2022/03/16 08:19:40;;;;;;;30.58;22.77;;;8.70;99.90;;;;;;4964129;28;92870;-76
2022/03/16 08:22:05;;;;;;;32.08;22.08;;;8.70;99.90;;;;;;4982735;28;89492;-77
2022/03/16 08:24:31;;;;;;;29.80;22.00;;;8.70;99.90;;;;;;4987518;28;89262;-78
2022/03/16 08:26:57;;;;;;;31.15;21.33;;;8.70;99.90;;;;;;4987289;28;90247;-75
2022/03/16 08:29:25;;;;;;;30.88;22.02;;;8.60;99.90;;;;;;4990329;28;92254;-77
2022/03/16 08:31:51;;;;;;;33.47;21.63;;;8.70;99.90;;;;;;4971122;28;89323;-76
2022/03/16 08:34:18;;;;;;;28.90;21.00;;;8.60;99.90;;;;;;4989385;28;89758;-76
2022/03/16 08:36:44;;;;;;;27.00;20.23;;;8.60;99.90;;;;;;4990239;28;89205;-77
2022/03/16 08:39:10;;;;;;;28.88;20.42;;;8.70;99.90;;;;;;4963180;28;91480;-76
2022/03/16 08:41:36;;;;;;;32.58;21.17;;;8.70;99.90;;;;;;4979147;28;89223;-77
2022/03/16 08:44:02;;;;;;;29.60;21.20;;;8.80;99.90;;;;;;4979443;28;89719;-75
2022/03/16 08:46:29;;;;;;;29.10;20.90;;;8.90;99.90;;;;;;4977783;28;89778;-77
2022/03/16 08:48:55;;;;;;;30.48;20.60;;;9.10;99.90;;;;;;4977637;28;91091;-75
2022/03/16 08:51:20;;;;;;;27.35;20.92;;;9.20;99.90;;;;;;4977633;28;90295;-76
2022/03/16 08:53:46;;;;;;;30.70;21.70;;;9.30;99.90;;;;;;4959896;28;92429;-76
2022/03/16 08:56:13;;;;;;;26.42;18.63;;;9.30;99.90;;;;;;4977264;28;91755;-77
2022/03/16 08:58:39;;;;;;;26.40;19.45;;;9.30;99.90;;;;;;4977349;28;89622;-77
2022/03/16 09:01:05;;;;;;;27.05;18.95;;;9.40;99.90;;;;;;4977169;28;89448;-76
2022/03/16 09:03:31;;;;;;;28.98;20.05;;;9.30;99.90;;;;;;4959789;28;93202;-76
2022/03/16 09:05:57;;;;;;;27.33;19.15;;;9.30;99.90;;;;;;4977086;28;90246;-76
2022/03/16 09:08:22;;;;;;;28.33;18.73;;;9.30;99.90;;;;;;4977552;28;89187;-77
2022/03/16 09:10:48;;;;;;;27.73;19.08;;;9.30;99.90;;;;;;4977169;28;89228;-76
2022/03/16 09:13:17;;;;;;;24.65;19.15;;;9.50;99.90;;;;;;4959312;28;90995;-76
2022/03/16 09:15:44;;;;;;;24.70;19.33;;;9.60;99.90;;;;;;4976284;28;91020;-78
2022/03/16 09:18:10;;;;;;;26.85;19.63;;;9.70;99.90;;;;;;4959287;28;92423;-77
2022/03/16 09:20:39;;;;;;;24.60;18.40;;;9.70;99.90;;;;;;4959544;28;89316;-78
2022/03/16 09:23:05;;;;;;;23.55;18.65;;;9.90;99.90;;;;;;4977139;28;89338;-78
2022/03/16 09:25:33;;;;;;;24.27;17.15;;;10.10;99.90;;;;;;4974979;28;89589;-78
2022/03/16 09:27:59;;;;;;;21.73;16.63;;;10.20;99.90;;;;;;4957431;28;92299;-77
2022/03/16 09:30:25;;;;;;;26.60;16.40;;;10.10;99.90;;;;;;4976110;28;90311;-77
2022/03/16 09:32:57;;;;;;;21.45;16.77;;;10.10;99.90;;;;;;4976859;28;89599;-77
2022/03/16 09:35:24;;;;;;;21.52;16.73;;;10.20;99.90;;;;;;4976341;28;89382;-77
2022/03/16 09:37:50;;;;;;;19.95;16.10;;;10.20;99.90;;;;;;4975314;28;89903;-77
2022/03/16 09:40:17;;;;;;;21.98;16.77;;;10.40;99.90;;;;;;4975377;28;91081;-78
2022/03/16 09:42:45;;;;;;;19.98;16.20;;;10.50;99.90;;;;;;4976467;28;89320;-78
2022/03/16 09:45:17;;;;;;;19.67;15.43;;;10.60;99.90;;;;;;4976401;28;89737;-78
2022/03/16 09:47:45;;;;;;;18.95;15.20;;;10.70;99.90;;;;;;4975708;28;90055;-78
2022/03/16 09:50:10;;;;;;;18.92;15.15;;;10.70;99.90;;;;;;4959632;28;89617;-78
2022/03/16 09:52:37;;;;;;;18.92;14.27;;;10.60;99.90;;;;;;4960445;28;91705;-78
2022/03/16 09:55:05;;;;;;;19.48;15.32;;;10.60;99.90;;;;;;4976660;28;90292;-77
2022/03/16 09:57:31;;;;;;;17.38;14.20;;;10.80;99.90;;;;;;4976901;28;88898;-78
2022/03/16 09:59:56;;;;;;;19.65;15.43;;;10.80;99.90;;;;;;4977776;28;89136;-78
2022/03/16 10:02:22;;;;;;;21.88;15.90;;;10.90;99.90;;;;;;4976545;28;89724;-78
2022/03/16 10:04:48;;;;;;;20.80;15.68;;;11.00;99.90;;;;;;4977970;28;91066;-78
2022/03/16 10:07:13;;;;;;;19.35;15.38;;;11.10;99.90;;;;;;4974991;28;90580;-77
2022/03/16 10:15:14;;;;;;;18.65;14.80;;;11.30;99.90;;;;;;4979430;28;89660;-78
2022/03/16 10:17:45;;;;;;;16.73;14.18;;;11.50;99.90;;;;;;4977931;28;89923;-78
2022/03/16 10:20:28;;;;;;;19.95;14.07;;;11.70;99.90;;;;;;4961426;28;89748;-78
2022/03/16 10:23:02;;;;;;;16.77;13.63;;;12.20;99.90;;;;;;4979971;28;89447;-77
2022/03/16 10:25:30;;;;;;;16.05;12.43;;;12.20;99.90;;;;;;4961097;28;92779;-77
2022/03/16 10:28:16;;;;;;;16.55;13.30;;;12.10;99.90;;;;;;4978022;28;89368;-77
2022/03/16 10:30:53;;;;;;;14.55;12.43;;;12.10;99.90;;;;;;4961113;28;90327;-77
2022/03/16 10:33:23;;;;;;;17.98;13.40;;;12.30;99.90;;;;;;4978974;28;90160;-76
2022/03/16 10:36:03;;;;;;;16.55;13.40;;;12.50;99.90;;;;;;4978223;28;90759;-78
2022/03/16 10:38:30;;;;;;;15.23;12.55;;;12.60;99.90;;;;;;4961238;28;89547;-75
2022/03/16 10:46:50;;;;;;;15.45;12.63;;;12.80;99.90;;;;;;4978289;28;89598;-77
2022/03/16 10:49:20;;;;;;;15.93;12.27;;;13.00;99.90;;;;;;4978797;28;89372;-77
2022/03/16 10:51:58;;;;;;;15.80;11.73;;;13.30;99.90;;;;;;4978943;28;89528;-78
2022/03/16 10:54:24;;;;;;;13.38;11.32;;;13.20;99.90;;;;;;4978682;28;89845;-77
2022/03/16 10:56:52;;;;;;;15.13;11.95;;;13.20;99.90;;;;;;4976073;28;91512;-75
2022/03/16 10:59:18;;;;;;;14.32;11.85;;;13.30;99.90;;;;;;4956859;28;92557;-76
2022/03/16 11:01:45;;;;;;;14.68;11.48;;;13.40;99.90;;;;;;4979782;28;89316;-80
2022/03/16 11:04:11;;;;;;;12.75;10.88;;;13.40;99.90;;;;;;4962740;28;92612;-78
2022/03/16 11:06:38;;;;;;;13.30;10.98;;;13.20;99.90;;;;;;4963325;28;92624;-79
2022/03/16 11:09:05;;;;;;;12.45;9.80;;;13.20;99.90;;;;;;4961823;28;92983;-78
2022/03/16 11:14:17;;;;;;;14.70;10.45;;;13.30;99.90;;;;;;4981026;28;88946;-77
2022/03/16 11:16:43;;;;;;;12.30;9.90;;;13.50;99.90;;;;;;4980833;28;89177;-77
2022/03/16 11:19:10;;;;;;;12.30;10.20;;;13.70;99.90;;;;;;4976664;28;91672;-75
2022/03/16 11:21:57;;;;;;;11.75;10.52;;;13.80;99.90;;;;;;4998517;28;89326;-76
2022/03/16 11:24:24;;;;;;;12.85;10.02;;;14.00;99.90;;;;;;4980367;28;89325;-77
2022/03/16 11:27:10;;;;;;;12.68;10.70;;;14.10;99.90;;;;;;5004685;22;91176;-76
2022/03/16 11:30:05;;;;;;;11.98;10.18;;;14.40;99.90;;;;;;4957848;28;89301;-77
2022/03/16 11:32:44;;;;;;;10.98;9.38;;;14.40;99.90;;;;;;4959292;28;89251;-77
2022/03/16 11:35:13;;;;;;;12.15;9.60;;;14.20;99.90;;;;;;4958858;28;89335;-77
2022/03/16 11:37:51;;;;;;;11.43;9.48;;;14.40;99.90;;;;;;4941332;28;91812;-75
2022/03/16 11:40:22;;;;;;;10.95;9.65;;;14.70;99.90;;;;;;4942629;28;91082;-75
2022/03/16 11:43:11;;;;;;;12.05;10.18;;;14.80;99.90;;;;;;4942275;28;89702;-75
2022/03/16 11:45:48;;;;;;;12.52;10.57;;;14.70;99.90;;;;;;4941013;28;92049;-75
2022/03/16 11:48:32;;;;;;;11.10;9.95;;;14.80;99.90;;;;;;4958369;28;90170;-76
2022/03/16 11:51:13;;;;;;;12.00;9.95;;;15.00;99.90;;;;;;4959441;28;89830;-75
2022/03/16 11:53:49;;;;;;;11.23;9.93;;;15.00;99.90;;;;;;4959677;28;89200;-75
2022/03/16 11:56:21;;;;;;;10.98;9.68;;;15.10;99.90;;;;;;4941536;28;91337;-75
2022/03/16 11:58:48;;;;;;;12.30;9.00;;;15.30;99.90;;;;;;4958829;28;90472;-75
2022/03/16 12:01:33;;;;;;;11.50;9.82;;;15.70;99.90;;;;;;4959498;28;89470;-77
2022/03/16 12:04:19;;;;;;;10.70;9.60;;;15.40;99.90;;;;;;4941918;28;89258;-75
2022/03/16 12:07:05;;;;;;;12.57;9.68;;;15.30;99.90;;;;;;4941710;28;91493;-76
2022/03/16 12:09:49;;;;;;;10.13;9.07;;;15.40;99.90;;;;;;4959218;28;89190;-74
2022/03/16 12:15:24;;;;;;;10.63;8.73;;;15.70;99.90;;;;;;4959047;28;90208;-75
2022/03/16 12:17:55;;;;;;;11.05;9.15;;;15.90;99.90;;;;;;4940812;28;92957;-77
2022/03/16 12:20:24;;;;;;;10.48;9.02;;;15.80;99.90;;;;;;4941184;28;92719;-76
2022/03/16 12:23:18;;;;;;;10.90;9.35;;;16.00;99.90;;;;;;4958666;28;90672;-76
2022/03/16 12:25:46;;;;;;;10.43;9.27;;;16.20;99.90;;;;;;4955065;28;89531;-76
2022/03/16 12:31:11;;;;;;;11.98;9.20;;;15.50;99.90;;;;;;4958049;28;89026;-78
2022/03/16 12:33:42;;;;;;;10.93;9.07;;;15.30;99.90;;;;;;4958071;28;90349;-77
2022/03/16 12:36:17;;;;;;;9.77;8.63;;;15.30;99.90;;;;;;4952495;28;89729;-77
2022/03/16 12:38:49;;;;;;;11.73;9.20;;;15.40;99.90;;;;;;4947922;28;92715;-76
2022/03/16 12:44:06;;;;;;;10.00;8.55;;;16.80;99.90;;;;;;4938015;28;90240;-76
2022/03/16 12:46:43;;;;;;;9.50;8.05;;;16.90;98.90;;;;;;4936894;28;89333;-76
2022/03/16 12:49:14;;;;;;;12.27;9.88;;;17.10;98.90;;;;;;4937765;28;89991;-80
2022/03/16 12:51:44;;;;;;;8.70;7.65;;;16.90;98.30;;;;;;4928459;28;91936;-79
2022/03/16 12:54:23;;;;;;;13.27;9.30;;;16.60;97.50;;;;;;4939337;28;91455;-80
2022/03/16 12:56:51;;;;;;;9.38;8.38;;;16.80;98.00;;;;;;4958277;28;90091;-80
2022/03/16 12:59:26;;;;;;;9.60;7.93;;;16.70;98.40;;;;;;4939053;28;91512;-80
2022/03/16 13:01:54;;;;;;;10.05;7.72;;;16.50;98.90;;;;;;4940816;28;91562;-80
2022/03/16 13:04:23;;;;;;;9.43;7.25;;;16.40;98.70;;;;;;4963579;28;92177;-80
2022/03/16 13:06:52;;;;;;;8.50;7.45;;;16.40;98.50;;;;;;4943585;28;90411;-81
2022/03/16 13:09:17;;;;;;;8.15;6.60;;;16.50;98.00;;;;;;4957465;28;91696;-80
2022/03/16 13:11:43;;;;;;;8.30;7.38;;;16.20;98.30;;;;;;4960583;28;90563;-80
2022/03/16 13:14:19;;;;;;;8.00;7.20;;;16.20;99.10;;;;;;4943066;28;92374;-80
2022/03/16 13:16:55;;;;;;;8.98;7.80;;;16.10;98.50;;;;;;4945740;28;89331;-80
2022/03/16 13:19:24;;;;;;;8.77;7.32;;;15.70;98.50;;;;;;4965309;28;90192;-81
2022/03/16 13:22:02;;;;;;;8.35;7.10;;;15.70;98.50;;;;;;4951975;28;92620;-79
2022/03/16 13:24:31;;;;;;;8.32;7.43;;;15.70;98.30;;;;;;4974583;28;89643;-82
2022/03/16 13:26:57;;;;;;;10.02;7.60;;;15.90;98.60;;;;;;4962603;28;90914;-83
2022/03/16 13:29:23;;;;;;;8.77;6.70;;;15.90;98.90;;;;;;4949290;28;92968;-82
2022/03/16 13:31:57;;;;;;;8.30;6.63;;;16.20;97.90;;;;;;4954611;28;93619;-83
2022/03/16 13:34:23;;;;;;;10.63;7.93;;;16.30;97.80;;;;;;4976713;28;89900;-80
2022/03/16 13:36:52;;;;;;;9.57;7.95;;;16.40;97.50;;;;;;4946629;28;89241;-79
2022/03/16 13:39:36;;;;;;;8.48;7.40;;;16.20;97.10;;;;;;4945813;28;91608;-80
2022/03/16 13:42:12;;;;;;;8.35;7.47;;;16.40;96.90;;;;;;4959265;28;92236;-80
2022/03/16 13:44:43;;;;;;;9.27;8.27;;;16.60;96.60;;;;;;4979336;28;89246;-80
2022/03/16 13:47:11;;;;;;;10.23;8.35;;;16.60;96.30;;;;;;4945158;28;89296;-79
2022/03/16 13:49:38;;;;;;;9.25;8.25;;;16.80;96.20;;;;;;4975979;28;89100;-79
2022/03/16 13:52:06;;;;;;;11.73;8.77;;;16.60;96.40;;;;;;4974414;28;89346;-80
2022/03/16 13:54:31;;;;;;;10.43;7.75;;;16.60;95.90;;;;;;4954200;28;93079;-80
2022/03/16 13:57:10;;;;;;;10.07;8.23;;;16.50;96.70;;;;;;4956261;28;90304;-80
2022/03/16 13:59:36;;;;;;;9.00;7.72;;;16.30;97.00;;;;;;4957115;28;92244;-80
2022/03/16 14:02:09;;;;;;;9.85;8.30;;;16.10;96.60;;;;;;4947481;28;92293;-80
2022/03/16 14:04:42;;;;;;;9.43;8.25;;;16.10;97.70;;;;;;4958581;28;90053;-80
2022/03/16 14:07:28;;;;;;;10.15;7.85;;;16.30;97.20;;;;;;4945019;28;89321;-80
2022/03/16 14:10:01;;;;;;;9.32;7.95;;;16.40;96.70;;;;;;4972734;28;90233;-79
2022/03/16 14:12:35;;;;;;;10.20;8.63;;;16.50;96.70;;;;;;4943533;28;93470;-79
2022/03/16 14:15:06;;;;;;;11.07;7.75;;;16.40;97.00;;;;;;4959919;28;91470;-79
2022/03/16 14:17:45;;;;;;;10.50;7.43;;;16.20;97.30;;;;;;4936333;28;90574;-79
2022/03/16 14:20:16;;;;;;;9.40;7.28;;;16.00;97.40;;;;;;4957954;28;90309;-80
2022/03/16 14:22:43;;;;;;;11.05;7.80;;;16.00;98.10;;;;;;4961244;28;91624;-80
2022/03/16 14:25:21;;;;;;;10.45;7.18;;;16.00;97.30;;;;;;4964113;28;92387;-82
2022/03/16 14:27:49;;;;;;;12.05;7.35;;;15.90;97.60;;;;;;4959428;28;89477;-81
2022/03/16 14:30:17;;;;;;;9.85;7.43;;;15.90;97.70;;;;;;4963580;28;92594;-78
2022/03/16 14:32:47;;;;;;;10.60;7.20;;;15.70;99.00;;;;;;4947410;28;92221;-81
2022/03/16 14:35:13;;;;;;;12.23;7.82;;;15.70;98.70;;;;;;4964463;28;91018;-79
2022/03/16 14:37:39;;;;;;;11.63;7.18;;;15.60;98.60;;;;;;4981423;28;89241;-78
2022/03/16 14:40:05;;;;;;;9.50;7.20;;;15.50;98.80;;;;;;4969365;28;89099;-79
2022/03/16 14:42:31;;;;;;;11.07;7.53;;;15.40;98.70;;;;;;4978542;28;90364;-77
2022/03/16 14:44:58;;;;;;;10.80;7.93;;;15.30;98.90;;;;;;4946220;28;92633;-78
2022/03/16 14:47:23;;;;;;;9.63;8.18;;;15.40;98.90;;;;;;4968519;28;90270;-77
2022/03/16 14:49:49;;;;;;;10.40;7.78;;;15.30;98.70;;;;;;4969173;28;91331;-76
2022/03/16 14:52:15;;;;;;;9.63;8.20;;;15.30;99.20;;;;;;4971113;28;89431;-76
2022/03/16 14:54:41;;;;;;;12.18;8.90;;;15.20;99.30;;;;;;4948886;28;91564;-75
2022/03/16 14:57:07;;;;;;;12.18;9.65;;;15.00;98.90;;;;;;4952578;28;89467;-75
2022/03/16 14:59:33;;;;;;;16.80;10.50;;;15.00;98.60;;;;;;4966514;28;89621;-75
2022/03/16 15:01:58;;;;;;;13.07;11.18;;;15.00;98.10;;;;;;4968286;28;90325;-76
2022/03/16 15:04:24;;;;;;;15.00;10.95;;;15.00;98.30;;;;;;4973259;28;89852;-76
2022/03/16 15:06:49;;;;;;;12.82;11.43;;;14.80;98.50;;;;;;4962132;28;89335;-74
2022/03/16 15:09:15;;;;;;;17.70;12.02;;;14.80;99.10;;;;;;4974306;28;89198;-76
2022/03/16 15:11:40;;;;;;;27.63;15.80;;;14.80;98.40;;;;;;4964311;28;92511;-79
2022/03/16 15:14:06;;;;;;;18.38;14.07;;;14.60;99.10;;;;;;4947877;28;92303;-75
2022/03/16 15:16:32;;;;;;;25.33;22.60;;;14.50;98.50;;;;;;4954619;28;89651;-75
2022/03/16 15:18:57;;;;;;;20.15;16.05;;;14.50;99.20;;;;;;4961999;28;89280;-77
2022/03/16 15:21:23;;;;;;;24.77;20.08;;;14.40;99.40;;;;;;4973092;28;89965;-76
2022/03/16 15:23:48;;;;;;;16.35;14.45;;;14.30;99.30;;;;;;4950380;28;92795;-75
2022/03/16 15:26:14;;;;;;;17.33;15.40;;;14.30;98.90;;;;;;4965841;28;89344;-76
2022/03/16 15:28:39;;;;;;;16.38;14.68;;;14.20;99.20;;;;;;4974315;28;89144;-75
2022/03/16 15:31:05;;;;;;;17.42;14.70;;;14.20;99.10;;;;;;4961829;28;89388;-75
2022/03/16 15:33:34;;;;;;;19.40;15.13;;;14.20;99.50;;;;;;4971530;28;92680;-75
2022/03/16 15:36:00;;;;;;;18.52;15.52;;;14.20;99.70;;;;;;4957904;28;90566;-76
2022/03/16 15:38:25;;;;;;;17.80;15.40;;;14.10;99.40;;;;;;4972681;28;89400;-75
2022/03/16 15:43:35;;;;;;;18.15;16.15;;;14.00;99.70;;;;;;4971184;28;89488;-78
2022/03/16 15:46:01;;;;;;;18.27;15.52;;;14.00;99.90;;;;;;4957627;28;89447;-77
2022/03/16 15:48:27;;;;;;;18.13;15.43;;;14.00;99.50;;;;;;4974042;28;89896;-78
2022/03/16 15:50:52;;;;;;;17.35;15.18;;;14.00;99.20;;;;;;4970072;28;89598;-78
2022/03/16 15:53:19;;;;;;;17.25;15.25;;;14.00;99.30;;;;;;4958290;28;91983;-80
2022/03/16 15:55:47;;;;;;;18.25;16.27;;;14.00;99.30;;;;;;4958085;28;90004;-78
2022/03/16 15:58:13;;;;;;;17.67;15.80;;;14.10;98.90;;;;;;4962030;28;90172;-78
2022/03/16 16:00:39;;;;;;;29.10;22.13;;;13.90;98.50;;;;;;4940096;28;91509;-78
2022/03/16 16:03:06;;;;;;;18.88;16.25;;;13.80;99.10;;;;;;4940614;28;91108;-78
2022/03/16 16:05:33;;;;;;;19.50;16.08;;;13.70;98.50;;;;;;4940987;28;89275;-79
2022/03/16 16:07:59;;;;;;;18.33;15.75;;;13.60;98.70;;;;;;4957570;28;89665;-77
2022/03/16 16:10:27;;;;;;;18.67;16.67;;;13.60;98.80;;;;;;4940007;28;91636;-77
2022/03/16 16:12:53;;;;;;;19.70;16.52;;;13.50;98.80;;;;;;4946018;28;91847;-80
2022/03/16 16:15:22;;;;;;;18.60;16.60;;;13.40;99.30;;;;;;4965854;28;89258;-79
2022/03/16 16:17:48;;;;;;;19.45;16.38;;;13.30;99.20;;;;;;4944993;28;91603;-78
2022/03/16 16:20:15;;;;;;;19.05;16.92;;;13.30;99.10;;;;;;4942082;28;90610;-75
2022/03/16 16:22:42;;;;;;;19.92;16.35;;;13.20;99.40;;;;;;4963500;28;89295;-77
2022/03/16 16:25:09;;;;;;;18.60;15.85;;;13.10;99.90;;;;;;4957789;28;90559;-77
2022/03/16 16:27:36;;;;;;;20.92;17.35;;;13.10;99.60;;;;;;4948704;28;91955;-77
2022/03/16 16:30:18;;;;;;;23.92;17.95;;;13.00;99.80;;;;;;4953536;28;93061;-77
2022/03/16 16:32:48;;;;;;;19.63;17.08;;;13.00;99.90;;;;;;4940115;28;91676;-77
2022/03/16 16:35:15;;;;;;;21.60;17.92;;;12.90;99.10;;;;;;4962515;28;89436;-78
2022/03/16 16:37:41;;;;;;;19.50;16.42;;;12.90;99.40;;;;;;4943884;28;91397;-77
2022/03/16 16:40:08;;;;;;;20.20;17.10;;;12.80;99.80;;;;;;4962338;28;90241;-77
2022/03/16 16:45:18;;;;;;;18.40;15.93;;;12.80;99.50;;;;;;4963454;28;89306;-78
2022/03/16 16:47:46;;;;;;;18.52;16.05;;;12.70;99.90;;;;;;4961816;28;90031;-78
2022/03/16 16:50:15;;;;;;;19.15;15.63;;;12.60;99.70;;;;;;4960686;28;92627;-78
2022/03/16 16:52:43;;;;;;;21.38;17.08;;;12.60;99.90;;;;;;4977322;28;92492;-78
2022/03/16 16:55:12;;;;;;;21.90;16.48;;;12.50;99.90;;;;;;4961650;28;89620;-78
2022/03/16 16:57:43;;;;;;;21.80;16.77;;;12.50;99.90;;;;;;4960727;28;89731;-78
2022/03/16 17:00:09;;;;;;;19.77;16.33;;;12.40;99.90;;;;;;4957836;28;92769;-77
2022/03/16 17:02:38;;;;;;;19.17;15.45;;;12.30;99.90;;;;;;4959309;28;92284;-78
2022/03/16 17:05:06;;;;;;;21.20;16.73;;;12.30;99.90;;;;;;4960595;28;89365;-78
2022/03/16 17:07:32;;;;;;;21.67;16.65;;;12.20;99.90;;;;;;4958911;28;91362;-77
2022/03/16 17:09:58;;;;;;;20.38;15.80;;;12.20;99.90;;;;;;4956686;28;90066;-77
2022/03/16 17:12:27;;;;;;;20.95;16.52;;;12.20;99.90;;;;;;4939842;28;91113;-76
2022/03/16 17:14:55;;;;;;;20.55;16.65;;;12.10;99.90;;;;;;4939312;28;90312;-77
2022/03/16 17:17:21;;;;;;;20.08;16.20;;;12.00;99.90;;;;;;4939527;28;92356;-76
2022/03/16 17:19:48;;;;;;;22.52;16.60;;;11.90;99.90;;;;;;4959180;28;89360;-77
2022/03/16 17:22:15;;;;;;;22.13;16.75;;;11.90;99.90;;;;;;4956504;28;91916;-76
2022/03/16 17:24:42;;;;;;;20.27;16.60;;;11.70;99.90;;;;;;4973871;28;89429;-77
2022/03/16 17:29:35;;;;;;;23.25;17.63;;;11.60;99.90;;;;;;4974302;28;89761;-75
2022/03/16 17:32:13;;;;;;;23.35;17.33;;;11.50;99.90;;;;;;4977403;28;89617;-79
2022/03/16 17:34:40;;;;;;;22.02;17.10;;;11.40;99.90;;;;;;4977120;28;89389;-76
2022/03/16 17:37:08;;;;;;;22.48;17.50;;;11.30;99.90;;;;;;4959288;28;92030;-76
2022/03/16 17:39:33;;;;;;;24.95;18.75;;;11.20;99.90;;;;;;4956472;28;90133;-76
2022/03/16 17:47:27;;;;;;;24.65;18.65;;;10.90;99.90;;;;;;4957315;28;89465;-75
2022/03/16 17:49:53;;;;;;;23.85;18.73;;;10.80;99.90;;;;;;4956821;28;91426;-75
2022/03/16 17:52:22;;;;;;;25.00;19.33;;;10.70;99.90;;;;;;4945234;28;91862;-76
2022/03/16 17:54:48;;;;;;;24.30;20.00;;;10.60;99.90;;;;;;4975929;28;89446;-76
2022/03/16 17:57:19;;;;;;;25.70;20.25;;;10.50;99.90;;;;;;4959712;28;92168;-76
2022/03/16 17:59:46;;;;;;;27.95;21.15;;;10.50;99.90;;;;;;4962584;28;93719;-77
2022/03/16 18:02:11;;;;;;;28.38;20.17;;;10.50;99.90;;;;;;4962800;28;91380;-77
2022/03/16 18:04:37;;;;;;;28.30;20.88;;;10.40;99.90;;;;;;4979365;28;90155;-77
2022/03/16 18:07:03;;;;;;;26.02;20.20;;;10.40;99.90;;;;;;4979122;28;89557;-75
2022/03/16 18:09:28;;;;;;;25.55;19.55;;;10.50;99.90;;;;;;4978413;28;89250;-74
2022/03/16 18:14:38;;;;;;;26.17;19.98;;;10.50;99.90;;;;;;4982290;28;89231;-75
2022/03/16 18:17:09;;;;;;;29.42;22.58;;;10.50;99.90;;;;;;4986081;28;90628;-74
2022/03/16 18:19:35;;;;;;;36.38;27.98;;;10.50;99.90;;;;;;4987235;28;89168;-75